createdAt,value
2019-03-02T00:01:00.401Z,3.42
2019-03-02T00:03:27.892Z,3.36
2019-03-02T00:05:57.104Z,3.50
2019-03-02T00:08:25.217Z,3.53
2019-03-02T00:10:52.945Z,3.45
2019-03-02T00:13:22.036Z,3.35
2019-03-02T00:15:49.605Z,3.40
2019-03-02T00:18:17.046Z,3.40
2019-03-02T00:20:44.525Z,3.53
2019-03-02T00:23:12.025Z,3.50
2019-03-02T00:25:39.466Z,3.50
2019-03-02T00:28:06.885Z,3.53
2019-03-02T00:30:34.353Z,3.43
2019-03-02T00:33:01.818Z,3.45
2019-03-02T00:35:29.306Z,3.48
2019-03-02T00:37:56.985Z,3.47
2019-03-02T00:40:27.133Z,3.45
2019-03-02T00:42:53.826Z,3.32
2019-03-02T00:45:21.305Z,3.24
2019-03-02T00:47:48.764Z,3.26
2019-03-02T00:50:16.210Z,3.34
2019-03-02T00:52:43.725Z,3.36
2019-03-02T00:55:11.304Z,3.41
2019-03-02T00:57:38.811Z,3.31
2019-03-02T01:00:07.357Z,3.37
2019-03-02T01:02:36.802Z,3.24
2019-03-02T01:05:05.013Z,3.28
2019-03-02T01:07:32.485Z,3.34
2019-03-02T01:09:59.971Z,3.37
2019-03-02T01:12:27.471Z,3.33
2019-03-02T01:14:54.905Z,3.35
2019-03-02T01:17:22.526Z,3.32
2019-03-02T01:19:52.579Z,3.14
2019-03-02T01:22:19.305Z,3.20
2019-03-02T01:24:46.788Z,3.13
2019-03-02T01:27:14.289Z,3.24
2019-03-02T01:29:41.825Z,3.47
2019-03-02T01:32:12.661Z,3.44
2019-03-02T01:34:42.330Z,3.24
2019-03-02T01:37:09.671Z,3.26
2019-03-02T01:39:37.205Z,3.15
2019-03-02T01:42:04.643Z,3.08
2019-03-02T01:44:32.125Z,3.22
2019-03-02T01:46:59.645Z,3.33
2019-03-02T01:49:28.365Z,3.39
2019-03-02T01:51:58.179Z,3.26
2019-03-02T01:54:25.167Z,3.24
2019-03-02T01:56:52.745Z,3.30
2019-03-02T01:59:20.225Z,3.19
2019-03-02T02:01:47.705Z,3.05
2019-03-02T02:04:15.135Z,3.06
2019-03-02T02:06:42.951Z,3.12
2019-03-02T02:09:11.175Z,3.23
2019-03-02T02:11:38.685Z,3.19
2019-03-02T02:14:06.081Z,3.16
2019-03-02T02:16:33.547Z,3.09
2019-03-02T02:19:02.441Z,3.16
2019-03-02T02:21:30.390Z,3.18
2019-03-02T02:23:57.865Z,3.07
2019-03-02T02:26:25.345Z,3.15
2019-03-02T02:28:52.765Z,3.13
2019-03-02T02:31:20.218Z,3.28
2019-03-02T02:33:47.663Z,3.19
2019-03-02T02:36:18.769Z,3.03
2019-03-02T02:38:44.445Z,3.12
2019-03-02T02:41:11.964Z,3.13
2019-03-02T02:43:39.405Z,3.27
2019-03-02T02:46:06.831Z,3.41
2019-03-02T02:48:34.326Z,3.16
2019-03-02T02:51:04.362Z,3.15
2019-03-02T02:53:31.123Z,3.15
2019-03-02T02:55:58.573Z,3.21
2019-03-02T02:58:26.067Z,3.01
2019-03-02T03:00:55.200Z,3.18
2019-03-02T03:03:22.900Z,3.22
2019-03-02T03:05:53.957Z,3.26
2019-03-02T03:08:19.681Z,3.26
2019-03-02T03:10:47.146Z,3.28
2019-03-02T03:13:14.595Z,3.15
2019-03-02T03:15:47.247Z,3.18
2019-03-02T03:18:15.240Z,3.24
2019-03-02T03:20:47.954Z,3.14
2019-03-02T03:23:12.269Z,3.14
2019-03-02T03:25:39.725Z,3.11
2019-03-02T03:28:07.330Z,3.20
2019-03-02T03:30:38.350Z,3.10
2019-03-02T03:33:04.161Z,3.25
2019-03-02T03:35:32.551Z,3.30
2019-03-02T03:37:59.998Z,3.32
2019-03-02T03:40:27.493Z,3.28
2019-03-02T03:43:02.240Z,3.14
2019-03-02T03:45:24.346Z,3.25
2019-03-02T03:47:51.842Z,3.04
2019-03-02T03:50:19.306Z,3.16
2019-03-02T03:52:48.957Z,3.13
2019-03-02T03:55:23.710Z,2.96
2019-03-02T03:57:45.650Z,3.04
2019-03-02T04:00:13.988Z,3.05
2019-03-02T04:02:41.795Z,3.14
2019-03-02T04:05:10.396Z,3.17
2019-03-02T04:07:37.867Z,3.01
2019-03-02T04:10:08.026Z,3.08
2019-03-02T04:12:35.465Z,3.17
2019-03-02T04:15:03.276Z,3.14
2019-03-02T04:17:34.223Z,3.07
2019-03-02T04:20:00.459Z,3.12
2019-03-02T04:22:27.924Z,3.25
2019-03-02T04:25:04.565Z,3.25
2019-03-02T04:27:32.005Z,3.28
2019-03-02T04:29:59.445Z,3.20
2019-03-02T04:32:27.841Z,3.21
2019-03-02T04:34:57.703Z,3.13
2019-03-02T04:37:25.425Z,3.17
2019-03-02T04:39:52.846Z,3.15
2019-03-02T04:42:20.345Z,3.09
2019-03-02T04:44:47.845Z,3.04
2019-03-02T04:47:15.305Z,3.18
2019-03-02T04:49:42.765Z,3.21
2019-03-02T04:52:11.504Z,3.17
2019-03-02T04:54:39.306Z,3.15
2019-03-02T04:57:06.765Z,3.12
2019-03-02T04:59:34.235Z,3.16
2019-03-02T05:02:01.705Z,3.13
2019-03-02T05:04:32.245Z,3.03
2019-03-02T05:06:58.564Z,3.07
2019-03-02T05:09:26.009Z,3.07
2019-03-02T05:11:53.485Z,3.10
2019-03-02T05:14:20.975Z,3.19
2019-03-02T05:16:48.466Z,3.15
2019-03-02T05:19:15.924Z,3.12
2019-03-02T05:21:44.326Z,3.02
2019-03-02T05:24:11.845Z,3.07
2019-03-02T05:26:39.345Z,3.16
2019-03-02T05:29:06.805Z,3.10
2019-03-02T05:31:34.245Z,3.06
2019-03-02T05:34:04.577Z,3.04
2019-03-02T05:36:31.074Z,3.11
2019-03-02T05:38:58.560Z,3.23
2019-03-02T05:41:26.005Z,3.21
2019-03-02T05:43:53.465Z,3.15
2019-03-02T05:46:21.915Z,2.98
2019-03-02T05:48:49.497Z,3.16
2019-03-02T05:51:16.945Z,3.19
2019-03-02T05:53:44.425Z,3.09
2019-03-02T05:56:11.886Z,3.06
2019-03-02T05:58:39.405Z,3.12
2019-03-02T06:01:06.825Z,3.16
2019-03-02T06:03:34.326Z,3.00
2019-03-02T06:06:01.825Z,2.99
2019-03-02T06:08:32.190Z,2.96
2019-03-02T06:11:01.956Z,2.99
2019-03-02T06:13:28.271Z,3.02
2019-03-02T06:15:56.309Z,3.08
2019-03-02T06:18:23.785Z,3.10
2019-03-02T06:20:51.584Z,3.13
2019-03-02T06:23:19.069Z,3.17
2019-03-02T06:25:46.545Z,3.01
2019-03-02T06:28:13.945Z,2.92
2019-03-02T06:30:44.099Z,2.96
2019-03-02T06:33:10.775Z,2.99
2019-03-02T06:35:38.212Z,3.06
2019-03-02T06:38:05.685Z,3.07
2019-03-02T06:40:33.127Z,2.96
2019-03-02T06:43:00.586Z,3.06
2019-03-02T06:45:28.085Z,3.09
2019-03-02T06:47:55.537Z,3.13
2019-03-02T06:50:23.089Z,3.06
2019-03-02T06:52:50.567Z,3.11
2019-03-02T06:55:20.922Z,3.16
2019-03-02T06:57:50.172Z,3.15
2019-03-02T07:00:18.169Z,3.17
2019-03-02T07:02:45.733Z,3.19
2019-03-02T07:05:13.426Z,3.11
2019-03-02T07:07:40.909Z,3.12
2019-03-02T07:10:11.020Z,3.17
2019-03-02T07:12:41.845Z,3.25
2019-03-02T07:15:13.277Z,3.35
2019-03-02T07:18:07.840Z,3.30
2019-03-02T07:20:35.987Z,3.27
2019-03-02T07:23:03.606Z,3.43
2019-03-02T07:25:31.397Z,3.37
2019-03-02T07:28:01.855Z,3.38
2019-03-02T07:30:28.507Z,3.41
2019-03-02T07:32:56.298Z,3.37
2019-03-02T07:35:23.765Z,3.29
2019-03-02T07:37:51.182Z,3.41
2019-03-02T07:40:18.670Z,3.48
2019-03-02T07:42:46.111Z,3.39
2019-03-02T07:45:15.009Z,3.50
2019-03-02T07:47:42.475Z,3.37
2019-03-02T07:50:10.276Z,3.34
2019-03-02T07:52:37.723Z,3.50
2019-03-02T07:55:05.449Z,3.50
2019-03-02T07:57:32.902Z,3.53
2019-03-02T08:00:02.117Z,3.49
2019-03-02T08:02:30.727Z,3.52
2019-03-02T08:05:00.036Z,3.55
2019-03-02T08:07:27.645Z,3.57
2019-03-02T08:09:55.089Z,3.64
2019-03-02T08:12:24.879Z,3.57
2019-03-02T08:14:52.003Z,3.59
2019-03-02T08:17:19.444Z,3.71
2019-03-02T08:19:48.546Z,3.68
2019-03-02T08:22:16.267Z,3.65
2019-03-02T08:24:44.683Z,3.68
2019-03-02T08:27:12.182Z,3.74
2019-03-02T08:29:39.649Z,3.68
2019-03-02T08:32:07.083Z,3.72
2019-03-02T08:34:34.538Z,3.75
2019-03-02T08:37:02.009Z,3.79
2019-03-02T08:39:29.561Z,3.84
2019-03-02T08:41:57.105Z,3.67
2019-03-02T08:44:24.746Z,3.85
2019-03-02T08:46:52.258Z,3.94
2019-03-02T08:49:19.990Z,3.82
2019-03-02T08:51:49.870Z,3.93
2019-03-02T08:54:17.917Z,3.96
2019-03-02T08:56:47.741Z,4.05
2019-03-02T08:59:14.907Z,4.02
2019-03-02T09:01:42.466Z,4.09
2019-03-02T09:04:10.168Z,4.08
2019-03-02T09:06:37.833Z,4.04
2019-03-02T09:09:06.749Z,4.04
2019-03-02T09:11:34.182Z,4.09
2019-03-02T09:14:01.640Z,4.36
2019-03-02T09:16:29.502Z,4.51
2019-03-02T09:18:56.959Z,4.41
2019-03-02T09:21:24.487Z,4.42
2019-03-02T09:23:54.378Z,4.44
2019-03-02T09:26:22.015Z,4.55
2019-03-02T09:28:51.951Z,4.43
2019-03-02T09:31:25.906Z,4.25
2019-03-02T09:33:48.319Z,4.08
2019-03-02T09:36:15.819Z,4.34
2019-03-02T09:38:43.328Z,4.24
2019-03-02T09:41:11.670Z,4.30
2019-03-02T09:43:39.335Z,4.32
2019-03-02T09:46:07.549Z,4.37
2019-03-02T09:48:35.926Z,4.29
2019-03-02T09:51:03.964Z,4.43
2019-03-02T09:53:31.836Z,4.32
2019-03-02T09:55:59.823Z,4.39
2019-03-02T09:58:27.332Z,4.47
2019-03-02T10:00:56.808Z,4.52
2019-03-02T10:03:26.707Z,4.36
2019-03-02T10:05:53.788Z,4.22
2019-03-02T10:08:21.469Z,4.14
2019-03-02T10:10:48.943Z,4.30
2019-03-02T10:13:16.400Z,3.97
2019-03-02T10:15:44.041Z,3.88
2019-03-02T10:18:13.887Z,4.08
2019-03-02T10:20:42.619Z,4.03
2019-03-02T10:23:10.336Z,4.13
2019-03-02T10:25:37.813Z,4.30
2019-03-02T10:28:07.373Z,4.12
2019-03-02T10:30:34.954Z,4.12
2019-03-02T10:33:02.388Z,3.94
2019-03-02T10:35:30.526Z,4.00
2019-03-02T10:37:58.105Z,4.11
2019-03-02T10:40:25.603Z,4.20
2019-03-02T10:42:53.276Z,4.10
2019-03-02T10:45:21.652Z,4.15
2019-03-02T10:47:49.247Z,4.33
2019-03-02T10:50:19.651Z,4.13
2019-03-02T10:52:48.947Z,4.28
2019-03-02T10:55:18.107Z,4.25
2019-03-02T10:57:45.788Z,4.10
2019-03-02T11:00:17.872Z,4.20
2019-03-02T11:02:45.494Z,4.09
2019-03-02T11:05:48.559Z,4.12
2019-03-02T11:08:44.612Z,4.34
2019-03-02T11:11:29.782Z,4.55
2019-03-02T11:14:27.781Z,4.75
2019-03-02T11:17:13.580Z,4.79
2019-03-02T11:20:03.706Z,4.65
2019-03-02T11:22:41.754Z,4.68
2019-03-02T11:25:25.650Z,4.89
2019-03-02T11:27:58.881Z,4.90
2019-03-02T11:30:57.829Z,4.86
2019-03-02T11:33:43.729Z,4.86
2019-03-02T11:36:39.667Z,4.64
2019-03-02T11:39:37.939Z,4.74
2019-03-02T11:42:14.064Z,4.62
2019-03-02T11:45:03.969Z,4.63
2019-03-02T11:47:50.949Z,4.68
2019-03-02T11:50:24.238Z,5.07
2019-03-02T11:53:02.999Z,4.94
2019-03-02T11:55:42.279Z,5.14
2019-03-02T11:58:41.316Z,5.16
2019-03-02T12:01:30.044Z,5.36
2019-03-02T12:04:19.546Z,5.38
2019-03-02T12:07:13.251Z,4.76
2019-03-02T12:10:06.435Z,4.95
2019-03-02T12:12:56.719Z,4.97
2019-03-02T12:15:33.970Z,5.33
2019-03-02T12:18:16.426Z,5.39
2019-03-02T12:21:03.184Z,5.29
2019-03-02T12:23:49.251Z,5.41
2019-03-02T12:26:36.184Z,5.55
2019-03-02T12:29:26.687Z,5.54
2019-03-02T12:32:07.576Z,5.50
2019-03-02T12:34:46.911Z,5.59
2019-03-02T12:37:39.638Z,5.70
2019-03-02T12:40:36.316Z,5.54
2019-03-02T12:43:21.837Z,5.51
2019-03-02T12:46:05.498Z,5.57
2019-03-02T12:49:06.957Z,5.66
2019-03-02T12:51:53.007Z,5.76
2019-03-02T12:54:39.280Z,5.73
2019-03-02T12:57:29.446Z,5.70
2019-03-02T13:00:19.487Z,5.75
2019-03-02T13:03:15.508Z,5.46
2019-03-02T13:05:57.479Z,5.32
2019-03-02T13:08:46.792Z,5.48
2019-03-02T13:11:32.754Z,5.42
2019-03-02T13:14:07.602Z,5.60
2019-03-02T13:17:06.825Z,5.44
2019-03-02T13:19:39.651Z,5.58
2019-03-02T13:22:32.819Z,5.64
2019-03-02T13:25:22.499Z,5.73
2019-03-02T13:28:19.796Z,5.69
2019-03-02T13:31:15.714Z,5.77
2019-03-02T13:34:19.974Z,5.60
2019-03-02T13:36:56.424Z,5.81
2019-03-02T13:39:51.221Z,5.84
2019-03-02T13:42:37.955Z,5.92
2019-03-02T13:45:23.115Z,5.89
2019-03-02T13:48:22.233Z,5.96
2019-03-02T13:51:13.967Z,5.78
2019-03-02T13:53:53.602Z,5.62
2019-03-02T13:56:47.174Z,5.76
2019-03-02T13:59:41.285Z,5.72
2019-03-02T14:02:28.535Z,5.74
2019-03-02T14:05:14.476Z,5.74
2019-03-02T14:08:13.805Z,5.94
2019-03-02T14:11:07.315Z,5.81
2019-03-02T14:14:09.438Z,5.96
2019-03-02T14:16:57.517Z,5.82
2019-03-02T14:19:50.507Z,5.79
2019-03-02T14:22:41.150Z,5.52
2019-03-02T14:25:25.932Z,5.56
2019-03-02T14:28:30.702Z,5.68
2019-03-02T14:31:03.590Z,5.76
2019-03-02T14:34:03.007Z,5.91
2019-03-02T14:36:37.811Z,5.87
2019-03-02T14:39:25.530Z,5.86
2019-03-02T14:42:03.983Z,5.89
2019-03-02T14:44:38.810Z,5.87
2019-03-02T14:47:28.825Z,5.77
2019-03-02T14:50:15.969Z,5.92
2019-03-02T14:53:06.189Z,5.99
2019-03-02T14:55:51.070Z,5.91
2019-03-02T14:58:37.716Z,5.93
2019-03-02T15:01:24.287Z,5.86
2019-03-02T15:04:26.885Z,6.28
2019-03-02T15:07:13.286Z,6.99
2019-03-02T15:09:59.384Z,6.58
2019-03-02T15:12:48.472Z,6.36
2019-03-02T15:15:38.991Z,6.46
2019-03-02T15:18:29.056Z,6.12
2019-03-02T15:21:13.540Z,6.11
2019-03-02T15:24:00.986Z,6.16
2019-03-02T15:26:51.239Z,5.99
2019-03-02T15:29:37.378Z,5.82
2019-03-02T15:32:34.394Z,5.86
2019-03-02T15:35:49.630Z,6.27
2019-03-02T15:38:51.918Z,6.27
2019-03-02T15:41:28.186Z,6.07
2019-03-02T15:44:18.589Z,5.79
2019-03-02T15:47:06.167Z,5.61
2019-03-02T15:49:53.124Z,5.62
2019-03-02T15:52:26.666Z,5.40
2019-03-02T15:55:12.938Z,5.55
2019-03-02T15:57:56.019Z,5.55
2019-03-02T16:00:58.364Z,5.39
2019-03-02T16:03:53.250Z,5.46
2019-03-02T16:06:31.216Z,5.30
2019-03-02T16:09:21.208Z,5.22
2019-03-02T16:11:56.350Z,5.15
2019-03-02T16:14:32.730Z,5.28
2019-03-02T16:17:17.587Z,5.39
2019-03-02T16:20:06.464Z,5.22
2019-03-02T16:22:53.989Z,5.46
2019-03-02T16:25:50.061Z,5.42
2019-03-02T16:28:38.923Z,5.32
2019-03-02T16:31:16.979Z,5.30
2019-03-02T16:33:56.590Z,5.30
2019-03-02T16:36:59.111Z,5.40
2019-03-02T16:39:47.079Z,5.29
2019-03-02T16:42:40.362Z,4.97
2019-03-02T16:45:27.027Z,4.97
2019-03-02T16:48:24.958Z,5.01
2019-03-02T16:51:18.492Z,4.85
2019-03-02T16:54:06.223Z,4.92
2019-03-02T16:57:05.559Z,4.77
2019-03-02T16:59:46.047Z,4.77
2019-03-02T17:02:45.837Z,4.33
2019-03-02T17:05:32.701Z,4.36
2019-03-02T17:08:31.214Z,4.38
2019-03-02T17:11:18.591Z,4.64
2019-03-02T17:14:15.258Z,4.45
2019-03-02T17:17:11.924Z,4.38
2019-03-02T17:19:51.445Z,4.48
2019-03-02T17:22:23.637Z,4.04
2019-03-02T17:25:01.321Z,4.18
2019-03-02T17:27:38.515Z,4.12
2019-03-02T17:30:17.801Z,4.23
2019-03-02T17:32:58.384Z,4.05
2019-03-02T17:35:34.219Z,4.04
2019-03-02T17:38:24.278Z,4.14
2019-03-02T17:41:15.004Z,4.57
2019-03-02T17:43:52.767Z,4.58
2019-03-02T17:46:32.076Z,4.31
2019-03-02T17:49:28.799Z,4.18
2019-03-02T17:52:12.913Z,4.03
2019-03-02T17:55:04.470Z,3.99
2019-03-02T17:57:54.422Z,3.93
2019-03-02T18:00:53.194Z,4.07
2019-03-02T18:03:55.966Z,4.32
2019-03-02T18:06:37.359Z,4.28
2019-03-02T18:09:28.864Z,4.00
2019-03-02T18:12:29.080Z,3.89
2019-03-02T18:15:10.794Z,3.76
2019-03-02T18:18:10.766Z,3.64
2019-03-02T18:20:38.751Z,3.65
2019-03-02T18:23:06.883Z,3.61
2019-03-02T18:25:36.092Z,3.65
2019-03-02T18:28:04.671Z,3.58
2019-03-02T18:30:32.864Z,3.64
2019-03-02T18:33:12.650Z,3.68
2019-03-02T18:35:41.914Z,3.53
2019-03-02T18:38:12.637Z,3.64
2019-03-02T18:40:41.645Z,3.78
2019-03-02T18:43:09.780Z,3.90
2019-03-02T18:45:39.613Z,3.83
2019-03-02T18:48:17.608Z,3.77
2019-03-02T18:50:57.620Z,3.50
2019-03-02T18:53:28.895Z,3.63
2019-03-02T18:55:57.913Z,3.50
2019-03-02T18:58:27.547Z,3.68
2019-03-02T19:00:57.681Z,3.50
2019-03-02T19:03:25.984Z,3.44
2019-03-02T19:05:53.920Z,3.58
2019-03-02T19:08:22.030Z,3.62
2019-03-02T19:10:50.505Z,3.51
2019-03-02T19:13:18.789Z,3.46
2019-03-02T19:15:53.515Z,3.63
2019-03-02T19:18:16.935Z,3.86
2019-03-02T19:20:45.925Z,3.70
2019-03-02T19:23:14.187Z,3.63
2019-03-02T19:25:43.474Z,3.63
2019-03-02T19:28:11.561Z,3.58
2019-03-02T19:30:39.766Z,3.61
2019-03-02T19:33:10.197Z,3.54
2019-03-02T19:35:38.286Z,3.61
2019-03-02T19:38:06.395Z,3.60
2019-03-02T19:40:34.521Z,3.45
2019-03-02T19:43:02.974Z,3.40
2019-03-02T19:45:31.755Z,3.48
2019-03-02T19:48:02.165Z,3.55
2019-03-02T19:50:30.489Z,3.53
2019-03-02T19:52:58.640Z,3.49
2019-03-02T19:55:26.693Z,3.43
2019-03-02T19:57:54.801Z,3.31
2019-03-02T20:00:25.413Z,3.31
2019-03-02T20:02:53.456Z,3.33
2019-03-02T20:05:21.515Z,3.23
2019-03-02T20:07:49.713Z,3.22
2019-03-02T20:10:23.088Z,3.10
2019-03-02T20:12:51.240Z,3.08
2019-03-02T20:15:19.559Z,3.08
2019-03-02T20:17:48.312Z,2.95
2019-03-02T20:20:16.750Z,3.13
2019-03-02T20:22:45.087Z,3.04
2019-03-02T20:25:13.776Z,3.05
2019-03-02T20:27:42.635Z,3.00
2019-03-02T20:30:13.325Z,2.86
2019-03-02T20:32:41.425Z,2.72
2019-03-02T20:35:12.164Z,2.95
2019-03-02T20:37:40.367Z,3.02
2019-03-02T20:40:11.007Z,2.94
2019-03-02T20:42:39.155Z,2.79
2019-03-02T20:45:09.498Z,2.81
2019-03-02T20:47:37.665Z,2.79
2019-03-02T20:50:06.243Z,2.96
2019-03-02T20:52:34.367Z,2.86
2019-03-02T20:55:02.527Z,2.91
2019-03-02T20:57:30.601Z,2.67
2019-03-02T20:59:58.706Z,2.85
2019-03-02T21:02:26.823Z,2.90
2019-03-02T21:04:54.941Z,2.80
2019-03-02T21:07:23.013Z,2.87
2019-03-02T21:09:51.578Z,2.77
2019-03-02T21:12:19.803Z,2.44
2019-03-02T21:14:47.833Z,2.63
2019-03-02T21:17:15.841Z,2.70
2019-03-02T21:19:43.964Z,2.65
2019-03-02T21:22:12.178Z,2.49
2019-03-02T21:24:40.208Z,2.64
2019-03-02T21:27:08.307Z,2.51
2019-03-02T21:29:36.395Z,2.60
2019-03-02T21:32:04.421Z,2.24
2019-03-02T21:34:32.515Z,2.46
2019-03-02T21:37:00.537Z,2.33
2019-03-02T21:39:28.605Z,2.43
2019-03-02T21:41:57.023Z,2.35
2019-03-02T21:44:25.091Z,2.23
2019-03-02T21:46:53.156Z,2.14
2019-03-02T21:49:21.303Z,2.07
2019-03-02T21:51:49.276Z,2.03
2019-03-02T21:54:17.283Z,2.06
2019-03-02T21:56:45.883Z,2.17
2019-03-02T21:59:13.711Z,2.17
2019-03-02T22:01:41.778Z,1.91
2019-03-02T22:04:09.597Z,1.96
2019-03-02T22:06:37.488Z,2.07
2019-03-02T22:09:07.130Z,2.29
2019-03-02T22:11:35.509Z,2.13
2019-03-02T22:14:03.520Z,1.94
2019-03-02T22:16:31.258Z,1.89
2019-03-02T22:18:58.814Z,2.22
2019-03-02T22:21:26.415Z,2.10
2019-03-02T22:23:53.949Z,1.94
2019-03-02T22:26:21.573Z,1.85
2019-03-02T22:28:49.150Z,1.67
2019-03-02T22:31:16.632Z,1.86
2019-03-02T22:33:44.210Z,1.73
2019-03-02T22:36:11.795Z,1.73
2019-03-02T22:38:39.269Z,1.71
2019-03-02T22:41:06.851Z,1.63
2019-03-02T22:43:34.315Z,1.65
2019-03-02T22:46:01.892Z,1.42
2019-03-02T22:48:29.453Z,1.61
2019-03-02T22:50:56.969Z,1.42
2019-03-02T22:53:24.490Z,1.77
2019-03-02T22:55:52.033Z,1.68
2019-03-02T22:58:19.541Z,1.38
2019-03-02T23:01:31.968Z,1.59
2019-03-02T23:03:59.791Z,1.34
2019-03-02T23:06:27.317Z,1.46
2019-03-02T23:08:54.856Z,1.42
2019-03-02T23:11:22.430Z,1.61
2019-03-02T23:13:49.909Z,1.44
2019-03-02T23:16:17.426Z,1.29
2019-03-02T23:18:44.878Z,1.30
2019-03-02T23:21:12.370Z,1.41
2019-03-02T23:23:39.872Z,1.47
2019-03-02T23:26:07.340Z,1.22
2019-03-02T23:28:34.810Z,1.13
2019-03-02T23:31:02.363Z,1.18
2019-03-02T23:33:30.030Z,1.36
2019-03-02T23:35:57.513Z,1.42
2019-03-02T23:38:24.959Z,1.28
2019-03-02T23:40:52.389Z,1.38
2019-03-02T23:43:19.830Z,1.55
2019-03-02T23:45:47.434Z,1.51
2019-03-02T23:48:17.249Z,1.46
2019-03-02T23:50:44.690Z,1.43
2019-03-02T23:53:12.205Z,1.59
2019-03-02T23:55:39.989Z,1.71
2019-03-02T23:58:08.559Z,1.64
